Time;durP1;ratioP1;P1;durP2;ratioP2;P2;SDS_P1;SDS_P2;PMS_P1;PMS_P2;Temp;Humidity;BMP_temperature;BMP_pressure;BME280_temperature;BME280_humidity;BME280_pressure;Samples;Min_cycle;Max_cycle;Signal;HPM_P1;HPM_P2
2022/09/06 00:01:09;;;;;;;5.10;2.30;;;;;;;;;;5042533;28;20280;-69
2022/09/06 00:03:34;;;;;;;5.75;2.08;;;;;;;;;;5043647;28;20262;-68
2022/09/06 00:06:04;;;;;;;5.40;2.20;;;;;;;;;;5021923;28;20722;-68
2022/09/06 00:08:29;;;;;;;6.45;2.28;;;;;;;;;;5031258;28;20666;-68
2022/09/06 00:10:56;;;;;;;4.88;2.30;;;;;;;;;;5015316;28;20410;-67
2022/09/06 00:13:21;;;;;;;4.45;2.05;;;;;;;;;;5012007;28;20223;-68
2022/09/06 00:15:47;;;;;;;5.85;2.03;;;;;;;;;;5015068;28;20262;-68
2022/09/06 00:18:12;;;;;;;6.00;2.10;;;;;;;;;;5021190;28;20603;-69
2022/09/06 00:20:40;;;;;;;5.13;2.20;;;;;;;;;;5020789;28;20215;-69
2022/09/06 00:23:05;;;;;;;5.75;2.40;;;;;;;;;;5040624;28;20682;-69
2022/09/06 00:25:31;;;;;;;4.70;2.42;;;;;;;;;;5040923;28;20214;-69
2022/09/06 00:27:57;;;;;;;8.55;2.30;;;;;;;;;;5020663;28;20705;-69
2022/09/06 00:30:22;;;;;;;5.55;2.10;;;;;;;;;;5020804;28;20290;-68
2022/09/06 00:32:47;;;;;;;5.30;2.35;;;;;;;;;;5016492;28;20231;-68
2022/09/06 00:35:13;;;;;;;4.50;2.17;;;;;;;;;;5012900;28;20767;-68
2022/09/06 00:37:38;;;;;;;3.92;1.80;;;;;;;;;;5019868;28;20223;-68
2022/09/06 00:40:04;;;;;;;4.65;2.10;;;;;;;;;;5017755;28;20633;-67
2022/09/06 00:42:29;;;;;;;4.53;2.00;;;;;;;;;;5020880;28;20415;-70
2022/09/06 00:44:54;;;;;;;5.88;2.00;;;;;;;;;;5021564;28;20215;-69
2022/09/06 00:47:19;;;;;;;3.60;1.98;;;;;;;;;;5018300;28;20224;-69
2022/09/06 00:49:45;;;;;;;5.55;2.03;;;;;;;;;;5021596;28;20230;-69
2022/09/06 00:52:13;;;;;;;5.38;2.17;;;;;;;;;;5020917;28;20655;-69
2022/09/06 00:54:38;;;;;;;3.92;2.00;;;;;;;;;;5017131;28;20526;-69
2022/09/06 00:57:04;;;;;;;6.35;2.58;;;;;;;;;;5013888;28;20576;-68
2022/09/06 00:59:30;;;;;;;5.97;2.83;;;;;;;;;;5013234;28;20238;-69
2022/09/06 01:01:55;;;;;;;4.32;2.35;;;;;;;;;;5035189;28;20219;-69
2022/09/06 01:04:21;;;;;;;5.97;2.30;;;;;;;;;;5039497;28;20223;-69
2022/09/06 01:06:48;;;;;;;5.97;2.25;;;;;;;;;;5040334;28;20226;-69
2022/09/06 01:09:14;;;;;;;6.22;2.45;;;;;;;;;;5039303;28;20219;-69
2022/09/06 01:11:48;;;;;;;7.50;2.40;;;;;;;;;;5038606;28;20230;-69
2022/09/06 01:14:27;;;;;;;7.03;2.72;;;;;;;;;;5039693;28;20230;-67
2022/09/06 01:17:02;;;;;;;5.80;2.38;;;;;;;;;;5033835;28;20822;-67
2022/09/06 01:19:31;;;;;;;5.53;2.20;;;;;;;;;;5031457;28;20214;-66
2022/09/06 01:22:11;;;;;;;6.60;2.10;;;;;;;;;;5031480;28;20218;-66
2022/09/06 01:24:40;;;;;;;6.53;2.42;;;;;;;;;;5033849;28;20215;-65
2022/09/06 01:27:23;;;;;;;5.57;2.42;;;;;;;;;;5037624;28;20753;-65
2022/09/06 01:29:49;;;;;;;5.45;2.33;;;;;;;;;;5039380;28;20641;-65
2022/09/06 01:32:19;;;;;;;3.33;2.28;;;;;;;;;;5034924;28;20311;-65
2022/09/06 01:34:46;;;;;;;6.13;2.17;;;;;;;;;;5031995;28;20215;-65
2022/09/06 01:37:13;;;;;;;4.40;2.47;;;;;;;;;;5028620;28;20212;-64
2022/09/06 01:39:38;;;;;;;6.32;2.45;;;;;;;;;;5037619;28;20237;-65
2022/09/06 01:42:05;;;;;;;5.63;2.70;;;;;;;;;;5031410;28;20773;-65
2022/09/06 01:44:30;;;;;;;3.92;2.40;;;;;;;;;;5031709;28;20620;-65
2022/09/06 01:47:14;;;;;;;5.07;2.55;;;;;;;;;;5034399;28;20227;-65
2022/09/06 01:49:48;;;;;;;5.07;2.70;;;;;;;;;;5039550;28;20349;-65
2022/09/06 01:52:18;;;;;;;7.38;2.47;;;;;;;;;;5027970;28;20317;-65
2022/09/06 01:54:47;;;;;;;4.82;2.70;;;;;;;;;;5040124;28;20570;-65
2022/09/06 01:57:18;;;;;;;4.93;2.65;;;;;;;;;;5039597;28;20243;-65
2022/09/06 01:59:54;;;;;;;4.40;2.65;;;;;;;;;;5038109;28;20276;-65
2022/09/06 02:02:23;;;;;;;4.32;2.25;;;;;;;;;;5035903;28;20211;-66
2022/09/06 02:04:51;;;;;;;4.72;2.38;;;;;;;;;;5030612;28;20243;-66
2022/09/06 02:07:23;;;;;;;5.30;2.45;;;;;;;;;;5032306;28;20242;-67
2022/09/06 02:09:51;;;;;;;5.55;2.47;;;;;;;;;;5033526;28;20223;-66
2022/09/06 02:12:16;;;;;;;4.45;2.70;;;;;;;;;;5033798;28;20664;-66
2022/09/06 02:14:47;;;;;;;7.13;2.70;;;;;;;;;;5018916;28;20212;-67
2022/09/06 02:17:14;;;;;;;6.32;3.47;;;;;;;;;;5031224;28;20216;-66
2022/09/06 02:19:43;;;;;;;5.53;2.50;;;;;;;;;;5042107;28;20203;-66
2022/09/06 02:22:09;;;;;;;4.30;2.53;;;;;;;;;;5043136;28;20207;-66
2022/09/06 02:24:35;;;;;;;6.57;2.70;;;;;;;;;;5040980;28;20277;-66
2022/09/06 02:27:01;;;;;;;8.20;2.60;;;;;;;;;;5033468;28;20211;-65
2022/09/06 02:29:26;;;;;;;5.85;2.60;;;;;;;;;;5014335;28;20769;-66
2022/09/06 02:31:53;;;;;;;5.47;2.90;;;;;;;;;;5017278;28;20235;-65
2022/09/06 02:34:18;;;;;;;6.18;3.05;;;;;;;;;;5037115;28;20299;-66
2022/09/06 02:36:44;;;;;;;4.30;2.80;;;;;;;;;;5023818;28;20295;-66
2022/09/06 02:39:09;;;;;;;7.63;3.10;;;;;;;;;;5021378;28;20216;-66
2022/09/06 02:41:34;;;;;;;6.55;3.10;;;;;;;;;;5022960;28;20212;-66
2022/09/06 02:44:00;;;;;;;4.80;3.08;;;;;;;;;;5023137;28;20238;-66
2022/09/06 02:46:25;;;;;;;4.88;3.10;;;;;;;;;;5023121;28;20231;-66
2022/09/06 02:48:51;;;;;;;6.03;2.80;;;;;;;;;;5017094;28;20224;-66
2022/09/06 02:51:16;;;;;;;5.43;2.65;;;;;;;;;;5031965;28;20270;-66
2022/09/06 02:53:41;;;;;;;6.88;3.40;;;;;;;;;;5015607;28;20242;-66
2022/09/06 02:56:07;;;;;;;6.20;3.30;;;;;;;;;;5019648;28;20223;-65
2022/09/06 02:58:32;;;;;;;7.63;3.60;;;;;;;;;;5023058;28;20223;-66
2022/09/06 03:00:57;;;;;;;6.75;3.67;;;;;;;;;;5022376;28;20216;-67
2022/09/06 03:03:23;;;;;;;8.63;5.13;;;;;;;;;;5042121;28;20530;-67
2022/09/06 03:05:49;;;;;;;7.35;4.90;;;;;;;;;;5042498;28;20713;-67
2022/09/06 03:08:15;;;;;;;7.25;4.80;;;;;;;;;;5041518;28;20249;-67
2022/09/06 03:10:40;;;;;;;8.10;5.22;;;;;;;;;;5037578;28;20265;-67
2022/09/06 03:13:06;;;;;;;7.25;5.47;;;;;;;;;;5021151;28;20224;-67
2022/09/06 03:15:31;;;;;;;6.18;4.97;;;;;;;;;;5014534;28;20230;-67
2022/09/06 03:17:57;;;;;;;6.65;4.65;;;;;;;;;;5018459;28;20584;-67
2022/09/06 03:20:23;;;;;;;6.80;4.60;;;;;;;;;;5022471;28;20212;-67
2022/09/06 03:22:48;;;;;;;6.60;4.20;;;;;;;;;;5021968;28;20297;-67
2022/09/06 03:25:13;;;;;;;7.55;4.40;;;;;;;;;;5022203;28;20334;-67
2022/09/06 03:27:39;;;;;;;6.47;4.43;;;;;;;;;;5022298;28;20212;-67
2022/09/06 03:30:05;;;;;;;6.90;4.22;;;;;;;;;;5021448;28;20310;-67
2022/09/06 03:32:30;;;;;;;7.25;4.07;;;;;;;;;;5021472;28;20540;-67
2022/09/06 03:34:55;;;;;;;5.38;3.83;;;;;;;;;;5015668;28;20224;-67
2022/09/06 03:37:21;;;;;;;7.32;3.58;;;;;;;;;;5022682;28;20216;-68
2022/09/06 03:39:46;;;;;;;7.20;3.80;;;;;;;;;;5015626;28;20741;-67
2022/09/06 03:42:11;;;;;;;4.95;3.50;;;;;;;;;;5022330;28;20427;-67
2022/09/06 03:44:36;;;;;;;5.93;3.03;;;;;;;;;;5021636;28;20239;-66
2022/09/06 03:47:02;;;;;;;7.45;3.95;;;;;;;;;;5021963;28;20722;-66
2022/09/06 03:49:27;;;;;;;8.00;3.90;;;;;;;;;;5041340;28;20251;-66
2022/09/06 03:51:53;;;;;;;6.20;3.65;;;;;;;;;;5027019;28;20227;-66
2022/09/06 03:54:18;;;;;;;6.00;3.80;;;;;;;;;;5014310;28;20704;-66
2022/09/06 03:56:44;;;;;;;7.38;4.20;;;;;;;;;;5014210;28;20690;-66
2022/09/06 03:59:09;;;;;;;5.20;3.50;;;;;;;;;;5017780;28;20223;-65
2022/09/06 04:01:34;;;;;;;6.60;4.15;;;;;;;;;;5036362;28;20203;-65
2022/09/06 04:04:00;;;;;;;8.38;3.85;;;;;;;;;;5050305;28;20207;-64
2022/09/06 04:06:25;;;;;;;7.13;4.30;;;;;;;;;;5050111;28;20789;-65
2022/09/06 04:08:51;;;;;;;5.57;3.63;;;;;;;;;;5051141;28;20450;-68
2022/09/06 04:11:16;;;;;;;7.03;3.83;;;;;;;;;;5049121;28;20380;-65
2022/09/06 04:13:41;;;;;;;6.25;3.53;;;;;;;;;;5050446;28;20215;-65
2022/09/06 04:16:07;;;;;;;5.53;4.43;;;;;;;;;;5049592;28;20207;-65
2022/09/06 04:18:32;;;;;;;7.97;4.40;;;;;;;;;;5046774;28;20347;-65
2022/09/06 04:20:57;;;;;;;6.13;4.05;;;;;;;;;;5047876;28;20778;-65
2022/09/06 04:23:23;;;;;;;4.90;3.85;;;;;;;;;;5047238;28;20350;-65
2022/09/06 04:25:49;;;;;;;7.18;4.00;;;;;;;;;;5048641;28;20207;-68
2022/09/06 04:28:14;;;;;;;9.25;3.78;;;;;;;;;;5049446;28;20206;-68
2022/09/06 04:30:40;;;;;;;5.32;3.80;;;;;;;;;;5050226;28;20218;-68
2022/09/06 04:33:05;;;;;;;5.93;4.47;;;;;;;;;;5045680;28;20246;-68
2022/09/06 04:35:30;;;;;;;6.50;3.92;;;;;;;;;;5050001;28;20206;-68
2022/09/06 04:37:59;;;;;;;5.63;3.90;;;;;;;;;;5048566;28;20241;-64
2022/09/06 04:40:24;;;;;;;7.03;4.35;;;;;;;;;;5048466;28;20203;-64
2022/09/06 04:42:49;;;;;;;6.75;3.80;;;;;;;;;;5049069;28;20218;-65
2022/09/06 04:45:15;;;;;;;5.10;3.92;;;;;;;;;;5049176;28;20640;-65
2022/09/06 04:47:41;;;;;;;5.75;3.92;;;;;;;;;;5048576;28;20237;-64
2022/09/06 04:50:06;;;;;;;6.70;3.67;;;;;;;;;;5049668;28;20680;-65
2022/09/06 04:52:31;;;;;;;7.10;4.05;;;;;;;;;;5051830;28;20215;-64
2022/09/06 04:54:57;;;;;;;6.05;3.90;;;;;;;;;;5049399;28;20211;-64
2022/09/06 04:57:22;;;;;;;7.15;4.20;;;;;;;;;;5049140;28;20219;-65
2022/09/06 04:59:47;;;;;;;7.97;4.20;;;;;;;;;;5049702;28;20206;-65
2022/09/06 05:02:13;;;;;;;7.13;4.88;;;;;;;;;;5050117;28;20203;-65
2022/09/06 05:04:38;;;;;;;7.97;4.88;;;;;;;;;;5049544;28;20621;-64
2022/09/06 05:07:04;;;;;;;7.65;4.72;;;;;;;;;;5049162;28;20738;-65
2022/09/06 05:09:30;;;;;;;7.35;4.70;;;;;;;;;;5050253;28;20218;-65
2022/09/06 05:11:55;;;;;;;6.22;4.78;;;;;;;;;;5050629;28;20213;-65
2022/09/06 05:14:21;;;;;;;6.22;4.25;;;;;;;;;;5048579;28;20244;-65
2022/09/06 05:16:46;;;;;;;5.93;4.60;;;;;;;;;;5049525;28;20694;-66
2022/09/06 05:19:11;;;;;;;7.27;4.77;;;;;;;;;;5048239;28;20783;-67
2022/09/06 05:21:37;;;;;;;6.13;4.60;;;;;;;;;;5048638;28;20272;-66
2022/09/06 05:24:02;;;;;;;6.97;4.90;;;;;;;;;;5049208;28;20207;-65
2022/09/06 05:26:27;;;;;;;6.95;4.50;;;;;;;;;;5049834;28;20239;-66
2022/09/06 05:28:53;;;;;;;6.57;4.15;;;;;;;;;;5047363;28;20345;-65
2022/09/06 05:31:26;;;;;;;7.75;4.63;;;;;;;;;;5048749;28;20203;-65
2022/09/06 05:33:52;;;;;;;5.53;4.15;;;;;;;;;;5049585;28;20251;-65
2022/09/06 05:36:17;;;;;;;8.43;4.68;;;;;;;;;;5048187;28;20669;-66
2022/09/06 05:38:42;;;;;;;7.07;4.72;;;;;;;;;;5049433;28;20221;-66
2022/09/06 05:41:08;;;;;;;7.55;4.97;;;;;;;;;;5049510;28;20766;-67
2022/09/06 05:43:33;;;;;;;6.35;4.50;;;;;;;;;;5048926;28;20212;-68
2022/09/06 05:45:59;;;;;;;6.15;4.60;;;;;;;;;;5049713;28;20298;-67
2022/09/06 05:48:24;;;;;;;6.63;4.90;;;;;;;;;;5048321;28;20257;-67
2022/09/06 05:51:03;;;;;;;8.32;5.18;;;;;;;;;;5049072;28;20223;-68
2022/09/06 05:53:44;;;;;;;6.65;4.90;;;;;;;;;;5052884;28;20223;-68
2022/09/06 05:56:10;;;;;;;8.98;5.30;;;;;;;;;;5053186;28;20214;-69
2022/09/06 05:58:35;;;;;;;7.97;5.28;;;;;;;;;;5052725;28;20211;-69
2022/09/06 06:01:06;;;;;;;8.18;5.20;;;;;;;;;;5053038;28;20678;-68
2022/09/06 06:03:32;;;;;;;7.15;5.65;;;;;;;;;;5052637;28;20207;-69
2022/09/06 06:05:57;;;;;;;9.35;5.80;;;;;;;;;;5053300;28;20222;-69
2022/09/06 06:08:22;;;;;;;9.30;5.57;;;;;;;;;;5051475;28;20243;-69
2022/09/06 06:10:47;;;;;;;8.10;5.90;;;;;;;;;;5052536;28;20217;-69
2022/09/06 06:13:13;;;;;;;8.63;5.75;;;;;;;;;;5054098;28;20231;-70
2022/09/06 06:15:38;;;;;;;8.82;6.00;;;;;;;;;;5053372;28;20207;-69
2022/09/06 06:18:03;;;;;;;10.98;6.28;;;;;;;;;;5051897;28;20211;-70
2022/09/06 06:20:29;;;;;;;9.13;6.38;;;;;;;;;;5052893;28;20210;-70
2022/09/06 06:22:54;;;;;;;9.85;6.28;;;;;;;;;;5053025;28;20219;-70
2022/09/06 06:25:21;;;;;;;11.45;6.60;;;;;;;;;;5051688;28;20207;-69
2022/09/06 06:27:47;;;;;;;10.75;6.65;;;;;;;;;;5053042;28;20235;-69
2022/09/06 06:30:12;;;;;;;9.50;6.20;;;;;;;;;;5052289;28;20238;-70
2022/09/06 06:32:39;;;;;;;12.30;6.63;;;;;;;;;;5051734;28;20231;-70
2022/09/06 06:35:04;;;;;;;13.95;6.63;;;;;;;;;;5052348;28;20222;-70
2022/09/06 06:37:31;;;;;;;12.68;6.30;;;;;;;;;;5052708;28;20596;-70
2022/09/06 06:39:57;;;;;;;12.05;7.38;;;;;;;;;;5052022;28;20260;-71
2022/09/06 06:42:23;;;;;;;10.25;6.47;;;;;;;;;;5052243;28;20620;-70
2022/09/06 06:44:48;;;;;;;10.90;6.93;;;;;;;;;;5052580;28;20298;-71
2022/09/06 06:47:13;;;;;;;9.50;5.93;;;;;;;;;;5051353;28;20273;-74
2022/09/06 06:49:39;;;;;;;12.52;7.05;;;;;;;;;;5048303;28;20211;-69
2022/09/06 06:52:04;;;;;;;8.63;6.43;;;;;;;;;;5057590;28;20224;-68
2022/09/06 06:54:29;;;;;;;8.30;5.95;;;;;;;;;;5068482;28;20704;-68
2022/09/06 06:56:55;;;;;;;9.15;6.13;;;;;;;;;;5069009;28;20568;-68
2022/09/06 06:59:20;;;;;;;6.97;5.20;;;;;;;;;;5066469;28;20214;-68
2022/09/06 07:01:45;;;;;;;11.43;5.57;;;;;;;;;;5064876;28;20610;-68
2022/09/06 07:04:12;;;;;;;7.97;5.47;;;;;;;;;;5047649;28;20348;-67
2022/09/06 07:06:47;;;;;;;8.85;4.93;;;;;;;;;;5048418;28;20207;-68
2022/09/06 07:09:12;;;;;;;9.05;5.50;;;;;;;;;;5047007;28;20353;-72
2022/09/06 07:11:37;;;;;;;8.95;5.15;;;;;;;;;;5047923;28;20743;-69
2022/09/06 07:14:03;;;;;;;7.07;4.63;;;;;;;;;;5047207;28;20221;-67
2022/09/06 07:16:28;;;;;;;8.60;5.35;;;;;;;;;;5048524;28;20214;-68
2022/09/06 07:18:54;;;;;;;8.02;5.07;;;;;;;;;;5048457;28;20211;-68
2022/09/06 07:21:20;;;;;;;8.48;5.50;;;;;;;;;;5045685;28;20222;-66
2022/09/06 07:23:45;;;;;;;8.82;4.90;;;;;;;;;;5047906;28;20207;-67
2022/09/06 07:26:14;;;;;;;6.65;4.72;;;;;;;;;;5047459;28;20207;-65
2022/09/06 07:28:40;;;;;;;6.72;4.68;;;;;;;;;;5047020;28;20260;-67
2022/09/06 07:31:05;;;;;;;6.28;4.82;;;;;;;;;;5047457;28;20286;-66
2022/09/06 07:33:30;;;;;;;6.05;4.47;;;;;;;;;;5047607;28;20336;-65
2022/09/06 07:35:56;;;;;;;7.38;5.13;;;;;;;;;;5046856;28;20211;-68
2022/09/06 07:38:22;;;;;;;7.53;4.35;;;;;;;;;;5046211;28;20207;-68
2022/09/06 07:40:51;;;;;;;7.40;4.80;;;;;;;;;;5048159;28;20226;-70
2022/09/06 07:43:17;;;;;;;10.15;5.15;;;;;;;;;;5046813;28;20708;-69
2022/09/06 07:45:42;;;;;;;6.20;4.80;;;;;;;;;;5048129;28;20216;-70
2022/09/06 07:48:07;;;;;;;9.70;5.20;;;;;;;;;;5046546;28;20237;-68
2022/09/06 07:50:33;;;;;;;7.40;5.00;;;;;;;;;;5041140;28;20272;-68
2022/09/06 07:53:04;;;;;;;7.78;5.28;;;;;;;;;;5046992;28;20215;-70
2022/09/06 07:55:30;;;;;;;7.30;4.88;;;;;;;;;;5015944;28;20478;-75
2022/09/06 07:57:55;;;;;;;7.97;5.63;;;;;;;;;;5046386;28;20666;-77
2022/09/06 08:00:20;;;;;;;10.07;5.20;;;;;;;;;;5046206;28;20215;-76
2022/09/06 08:02:46;;;;;;;8.50;5.78;;;;;;;;;;5047333;28;20207;-76
2022/09/06 08:05:11;;;;;;;7.88;5.13;;;;;;;;;;5046074;28;20219;-76
2022/09/06 08:07:36;;;;;;;9.70;5.22;;;;;;;;;;5047244;28;20710;-74
2022/09/06 08:10:02;;;;;;;9.43;5.40;;;;;;;;;;5047038;28;20473;-75
2022/09/06 08:12:28;;;;;;;8.90;5.10;;;;;;;;;;5045832;28;20424;-76
2022/09/06 08:14:53;;;;;;;7.63;5.32;;;;;;;;;;5045198;28;20268;-75
2022/09/06 08:17:19;;;;;;;13.35;5.50;;;;;;;;;;5046317;28;20215;-78
2022/09/06 08:19:44;;;;;;;9.70;5.72;;;;;;;;;;5046814;28;20238;-74
2022/09/06 08:22:09;;;;;;;9.57;5.10;;;;;;;;;;5045207;28;20207;-74
2022/09/06 08:24:35;;;;;;;12.52;5.22;;;;;;;;;;5045827;28;20671;-75
2022/09/06 08:27:00;;;;;;;9.98;5.03;;;;;;;;;;5047126;28;20215;-75
2022/09/06 08:29:26;;;;;;;12.70;5.28;;;;;;;;;;5046817;28;20280;-72
2022/09/06 08:31:51;;;;;;;9.50;5.15;;;;;;;;;;5046107;28;20302;-75
2022/09/06 08:34:16;;;;;;;11.40;5.28;;;;;;;;;;5046253;28;20219;-79
2022/09/06 08:36:42;;;;;;;8.20;5.75;;;;;;;;;;5046474;28;20242;-81
2022/09/06 08:39:08;;;;;;;7.05;5.45;;;;;;;;;;5046471;28;20298;-83
2022/09/06 08:41:34;;;;;;;9.32;5.30;;;;;;;;;;5047262;28;20214;-77
2022/09/06 08:44:01;;;;;;;8.82;5.53;;;;;;;;;;5047405;28;20586;-78
2022/09/06 08:46:29;;;;;;;9.57;5.40;;;;;;;;;;5045781;28;20211;-66
2022/09/06 08:48:55;;;;;;;10.90;5.60;;;;;;;;;;5045286;28;20774;-66
2022/09/06 08:51:39;;;;;;;10.93;5.80;;;;;;;;;;5049506;28;20218;-65
2022/09/06 08:54:23;;;;;;;8.50;5.95;;;;;;;;;;5062828;28;20295;-66
2022/09/06 08:57:01;;;;;;;8.00;5.22;;;;;;;;;;5066774;28;20210;-66
2022/09/06 08:59:27;;;;;;;8.23;5.47;;;;;;;;;;5064343;28;20209;-65
2022/09/06 09:01:56;;;;;;;7.03;5.03;;;;;;;;;;5065304;28;20700;-65
2022/09/06 09:04:22;;;;;;;10.80;6.20;;;;;;;;;;5064661;28;20249;-66
2022/09/06 09:06:48;;;;;;;12.38;5.60;;;;;;;;;;5065788;28;20288;-65
2022/09/06 09:09:13;;;;;;;7.95;5.25;;;;;;;;;;5064864;28;20206;-66
2022/09/06 09:11:40;;;;;;;10.57;4.95;;;;;;;;;;5065132;28;20211;-66
2022/09/06 09:14:06;;;;;;;7.25;5.00;;;;;;;;;;5064103;28;20203;-66
2022/09/06 09:16:32;;;;;;;8.40;4.75;;;;;;;;;;5063968;28;20206;-68
2022/09/06 09:18:58;;;;;;;7.55;4.68;;;;;;;;;;5044799;28;20870;-67
2022/09/06 09:21:24;;;;;;;8.07;5.32;;;;;;;;;;5043969;28;20211;-70
2022/09/06 09:23:51;;;;;;;11.43;4.20;;;;;;;;;;5045184;28;20218;-66
2022/09/06 09:26:16;;;;;;;6.05;3.88;;;;;;;;;;5047355;28;20226;-67
2022/09/06 09:29:00;;;;;;;7.80;4.70;;;;;;;;;;5049672;28;20729;-67
2022/09/06 09:31:32;;;;;;;8.40;4.35;;;;;;;;;;5050109;28;20305;-67
2022/09/06 09:34:01;;;;;;;8.20;3.63;;;;;;;;;;5050144;28;20353;-67
2022/09/06 09:36:26;;;;;;;8.32;4.45;;;;;;;;;;5049206;28;20230;-67
2022/09/06 09:38:53;;;;;;;8.57;4.20;;;;;;;;;;5050395;28;20722;-67
2022/09/06 09:41:27;;;;;;;7.72;3.55;;;;;;;;;;5049542;28;20876;-67
2022/09/06 09:43:55;;;;;;;6.28;3.80;;;;;;;;;;5048304;28;20723;-67
2022/09/06 09:46:21;;;;;;;8.43;4.18;;;;;;;;;;5049414;28;20246;-67
2022/09/06 09:49:00;;;;;;;6.25;3.20;;;;;;;;;;5048736;28;20698;-67
2022/09/06 09:51:26;;;;;;;7.43;3.42;;;;;;;;;;5049642;28;20930;-67
2022/09/06 09:53:55;;;;;;;7.57;4.18;;;;;;;;;;5048683;28;20218;-68
2022/09/06 09:56:24;;;;;;;7.82;4.32;;;;;;;;;;5048721;28;20215;-66
2022/09/06 09:58:50;;;;;;;6.93;3.97;;;;;;;;;;5047169;28;20211;-67
2022/09/06 10:01:17;;;;;;;10.57;4.00;;;;;;;;;;5049603;28;20221;-78
2022/09/06 10:03:42;;;;;;;6.05;4.07;;;;;;;;;;5047246;28;20207;-76
2022/09/06 10:06:09;;;;;;;6.88;3.08;;;;;;;;;;5046623;28;20249;-73
2022/09/06 10:08:38;;;;;;;9.00;4.80;;;;;;;;;;5046698;28;20252;-74
2022/09/06 10:11:03;;;;;;;7.68;4.70;;;;;;;;;;5025490;28;20417;-72
2022/09/06 10:13:29;;;;;;;9.30;4.68;;;;;;;;;;5028470;28;20709;-69
2022/09/06 10:15:54;;;;;;;7.63;3.47;;;;;;;;;;5017188;28;20618;-66
2022/09/06 10:18:19;;;;;;;8.82;3.95;;;;;;;;;;5044539;28;20251;-71
2022/09/06 10:20:47;;;;;;;5.75;3.10;;;;;;;;;;5004167;28;20207;-67
2022/09/06 10:23:15;;;;;;;9.60;3.75;;;;;;;;;;5046666;28;20222;-67
2022/09/06 10:25:44;;;;;;;7.40;3.78;;;;;;;;;;5043705;28;20199;-68
2022/09/06 10:28:20;;;;;;;7.47;3.70;;;;;;;;;;5043904;28;20310;-69
2022/09/06 10:30:52;;;;;;;7.47;3.47;;;;;;;;;;5116444;27;20212;-69
2022/09/06 10:33:29;;;;;;;6.18;3.00;;;;;;;;;;5125024;27;20224;-66
2022/09/06 10:35:55;;;;;;;9.23;2.65;;;;;;;;;;5103443;27;20260;-67
2022/09/06 10:38:25;;;;;;;4.85;3.10;;;;;;;;;;5056006;27;20870;-69
2022/09/06 10:43:27;;;;;;;6.55;2.58;;;;;;;;;;5271912;22;20310;-69
2022/09/06 10:46:01;;;;;;;7.20;2.72;;;;;;;;;;5025010;28;20215;-69
2022/09/06 10:48:27;;;;;;;5.32;2.40;;;;;;;;;;5064019;28;20298;-64
2022/09/06 10:50:54;;;;;;;5.70;2.15;;;;;;;;;;5047120;28;20218;-69
2022/09/06 10:53:20;;;;;;;5.68;2.42;;;;;;;;;;5045264;28;20330;-69
2022/09/06 10:55:46;;;;;;;4.28;2.38;;;;;;;;;;5084667;28;20650;-63
2022/09/06 10:58:11;;;;;;;7.03;2.45;;;;;;;;;;5059826;28;20305;-68
2022/09/06 11:00:40;;;;;;;6.05;2.88;;;;;;;;;;5044201;28;20212;-69
2022/09/06 11:03:06;;;;;;;4.78;2.50;;;;;;;;;;5036805;28;20230;-67
2022/09/06 11:05:40;;;;;;;5.90;2.25;;;;;;;;;;5035586;28;20214;-66
2022/09/06 11:08:07;;;;;;;6.00;2.30;;;;;;;;;;5048063;28;20423;-68
2022/09/06 11:10:33;;;;;;;6.55;2.00;;;;;;;;;;5091116;28;20221;-68
2022/09/06 11:13:00;;;;;;;6.78;1.70;;;;;;;;;;5066025;28;20237;-68
2022/09/06 11:15:27;;;;;;;6.72;2.22;;;;;;;;;;5081895;28;20237;-68
2022/09/06 11:18:09;;;;;;;2.15;1.60;;;;;;;;;;4997121;28;20245;-68
2022/09/06 11:20:38;;;;;;;4.25;1.85;;;;;;;;;;5029483;28;20234;-68
2022/09/06 11:23:04;;;;;;;4.80;1.83;;;;;;;;;;5026237;28;20222;-67
2022/09/06 11:25:36;;;;;;;6.40;1.90;;;;;;;;;;5041995;28;20214;-67
2022/09/06 11:28:01;;;;;;;4.35;1.70;;;;;;;;;;5025494;28;20226;-66
2022/09/06 11:30:26;;;;;;;5.85;1.67;;;;;;;;;;5025736;28;20661;-67
2022/09/06 11:33:02;;;;;;;3.13;1.35;;;;;;;;;;5025415;28;20368;-68
2022/09/06 11:35:29;;;;;;;5.65;1.55;;;;;;;;;;5020293;28;20248;-67
2022/09/06 11:38:18;;;;;;;5.10;1.63;;;;;;;;;;5221142;22;20207;-70
2022/09/06 11:40:45;;;;;;;2.90;1.30;;;;;;;;;;4988019;28;20233;-66
2022/09/06 11:43:37;;;;;;;4.45;1.55;;;;;;;;;;5044096;28;20880;-66
2022/09/06 11:46:02;;;;;;;5.20;2.00;;;;;;;;;;5048602;28;20814;-67
2022/09/06 11:48:33;;;;;;;5.00;1.60;;;;;;;;;;5040984;28;20308;-67
2022/09/06 11:50:58;;;;;;;6.05;1.80;;;;;;;;;;5062392;28;20222;-63
2022/09/06 11:53:25;;;;;;;5.10;2.47;;;;;;;;;;5042133;28;20904;-66
2022/09/06 11:55:57;;;;;;;4.68;2.00;;;;;;;;;;5026871;28;20984;-67
2022/09/06 11:58:25;;;;;;;6.18;1.98;;;;;;;;;;5042482;28;20298;-72
2022/09/06 12:01:09;;;;;;;5.28;2.53;;;;;;;;;;5049704;28;20225;-68
2022/09/06 12:03:46;;;;;;;3.80;2.15;;;;;;;;;;5062705;28;20267;-67
2022/09/06 12:06:15;;;;;;;7.20;2.13;;;;;;;;;;5024041;28;20837;-69
2022/09/06 12:08:41;;;;;;;6.00;2.15;;;;;;;;;;5045650;28;20632;-71
2022/09/06 12:11:25;;;;;;;3.92;1.80;;;;;;;;;;5062991;28;20301;-68
2022/09/06 12:13:52;;;;;;;7.22;2.42;;;;;;;;;;5021133;28;21025;-69
2022/09/06 12:16:17;;;;;;;4.63;2.20;;;;;;;;;;5005795;28;20769;-69
2022/09/06 12:18:48;;;;;;;4.10;1.50;;;;;;;;;;5029134;28;20220;-69
2022/09/06 12:21:32;;;;;;;3.53;1.75;;;;;;;;;;5029495;28;20208;-69
2022/09/06 12:23:57;;;;;;;6.50;1.73;;;;;;;;;;5029777;28;20615;-69
2022/09/06 12:26:46;;;;;;;5.88;2.10;;;;;;;;;;5027610;28;20227;-69
2022/09/06 12:29:11;;;;;;;4.45;1.50;;;;;;;;;;5028715;28;20231;-69
2022/09/06 12:31:38;;;;;;;4.32;1.60;;;;;;;;;;5028708;28;20843;-70
2022/09/06 12:34:06;;;;;;;3.92;1.67;;;;;;;;;;5029556;28;20921;-71
2022/09/06 12:36:31;;;;;;;4.53;1.40;;;;;;;;;;5029362;28;20290;-71
2022/09/06 12:39:01;;;;;;;5.53;1.80;;;;;;;;;;5011618;28;20319;-68
2022/09/06 12:41:28;;;;;;;5.05;1.98;;;;;;;;;;5028014;28;20339;-73
2022/09/06 12:43:55;;;;;;;4.65;1.63;;;;;;;;;;5027895;28;20251;-70
2022/09/06 12:46:20;;;;;;;7.05;1.85;;;;;;;;;;5029265;28;20215;-72
2022/09/06 12:48:58;;;;;;;5.50;1.77;;;;;;;;;;5028475;28;20237;-72
2022/09/06 12:51:24;;;;;;;3.78;1.90;;;;;;;;;;5028439;28;20204;-72
2022/09/06 12:53:50;;;;;;;3.78;2.00;;;;;;;;;;5029675;28;20219;-72
2022/09/06 12:56:17;;;;;;;5.40;2.42;;;;;;;;;;5028092;28;20216;-72
2022/09/06 12:58:43;;;;;;;5.30;2.10;;;;;;;;;;5027595;28;20211;-72
2022/09/06 13:01:11;;;;;;;5.50;1.95;;;;;;;;;;5028418;28;20218;-70
2022/09/06 13:03:39;;;;;;;4.45;2.00;;;;;;;;;;5027665;28;20234;-70
2022/09/06 13:06:04;;;;;;;9.00;2.28;;;;;;;;;;5028952;28;20265;-70
2022/09/06 13:08:32;;;;;;;7.50;1.80;;;;;;;;;;5029131;28;20212;-71
2022/09/06 13:10:57;;;;;;;4.03;1.67;;;;;;;;;;5027170;28;20286;-69
2022/09/06 13:13:23;;;;;;;5.65;1.95;;;;;;;;;;5029874;28;20682;-70
2022/09/06 13:15:48;;;;;;;3.67;1.88;;;;;;;;;;5027967;28;20215;-70
2022/09/06 13:18:22;;;;;;;4.43;2.00;;;;;;;;;;5026782;28;20302;-70
2022/09/06 13:20:58;;;;;;;4.63;2.10;;;;;;;;;;5029264;28;20221;-70
2022/09/06 13:23:23;;;;;;;5.85;2.40;;;;;;;;;;5026584;28;20235;-70
2022/09/06 13:25:49;;;;;;;10.57;2.50;;;;;;;;;;5027099;28;20223;-70
2022/09/06 13:28:22;;;;;;;6.25;2.00;;;;;;;;;;5027696;28;20234;-71
2022/09/06 13:30:58;;;;;;;7.38;2.58;;;;;;;;;;5029033;28;20273;-72
2022/09/06 13:33:24;;;;;;;3.70;2.45;;;;;;;;;;5026711;28;20220;-71
2022/09/06 13:35:50;;;;;;;7.97;2.08;;;;;;;;;;5029221;28;20216;-71
2022/09/06 13:38:27;;;;;;;5.75;2.40;;;;;;;;;;5027128;28;20219;-72
2022/09/06 13:40:53;;;;;;;6.05;2.15;;;;;;;;;;5028486;28;20297;-71
2022/09/06 13:43:20;;;;;;;5.93;1.77;;;;;;;;;;5028503;28;20212;-71
2022/09/06 13:45:46;;;;;;;4.82;1.35;;;;;;;;;;5028353;28;20374;-72
2022/09/06 13:48:11;;;;;;;4.25;1.40;;;;;;;;;;5028642;28;20306;-70
2022/09/06 13:50:36;;;;;;;4.28;1.48;;;;;;;;;;5029034;28;20296;-71
2022/09/06 13:53:02;;;;;;;4.20;1.50;;;;;;;;;;5027647;28;20322;-70
2022/09/06 13:55:29;;;;;;;3.60;1.30;;;;;;;;;;5029346;28;20204;-72
2022/09/06 13:57:54;;;;;;;5.03;1.75;;;;;;;;;;5028839;28;20223;-71
2022/09/06 14:00:20;;;;;;;5.10;1.60;;;;;;;;;;5027803;28;20222;-72
2022/09/06 14:02:46;;;;;;;4.57;2.08;;;;;;;;;;5028761;28;20208;-71
2022/09/06 14:05:11;;;;;;;4.60;1.90;;;;;;;;;;5027086;28;20216;-71
2022/09/06 14:07:36;;;;;;;4.32;1.80;;;;;;;;;;5026491;28;20298;-71
2022/09/06 14:10:02;;;;;;;6.15;2.03;;;;;;;;;;5028435;28;20574;-70
2022/09/06 14:12:27;;;;;;;5.10;1.63;;;;;;;;;;5029916;28;20219;-71
2022/09/06 14:14:53;;;;;;;4.20;1.73;;;;;;;;;;5031685;28;20219;-72
2022/09/06 14:17:18;;;;;;;4.07;1.60;;;;;;;;;;5030482;28;20219;-73
2022/09/06 14:19:44;;;;;;;4.60;1.45;;;;;;;;;;5032602;28;20244;-73
2022/09/06 14:22:10;;;;;;;6.18;1.75;;;;;;;;;;5031027;28;20207;-71
2022/09/06 14:24:35;;;;;;;4.40;1.42;;;;;;;;;;5032568;28;20770;-72
2022/09/06 14:27:01;;;;;;;4.30;1.40;;;;;;;;;;5031591;28;20277;-70
2022/09/06 14:29:27;;;;;;;4.85;1.15;;;;;;;;;;5031331;28;20222;-72
2022/09/06 14:31:52;;;;;;;4.13;1.27;;;;;;;;;;5031908;28;20227;-71
2022/09/06 14:34:17;;;;;;;3.72;1.15;;;;;;;;;;5026683;28;20630;-71
2022/09/06 14:36:43;;;;;;;3.92;1.17;;;;;;;;;;5025637;28;20211;-72
2022/09/06 14:39:08;;;;;;;4.38;1.60;;;;;;;;;;5030827;28;20314;-70
2022/09/06 14:41:34;;;;;;;3.53;1.33;;;;;;;;;;5029713;28;20204;-69
2022/09/06 14:43:59;;;;;;;3.88;1.13;;;;;;;;;;5031121;28;20215;-72
2022/09/06 14:46:25;;;;;;;2.33;1.05;;;;;;;;;;5031329;28;20245;-72